createdAt,value
2023-01-03T00:00:54.341Z,1.70
2023-01-03T00:03:40.820Z,1.80
2023-01-03T00:06:20.718Z,2.10
2023-01-03T00:08:53.082Z,1.30
2023-01-03T00:11:40.807Z,2.40
2023-01-03T00:14:14.860Z,2.00
2023-01-03T00:16:51.053Z,2.20
2023-01-03T00:19:24.184Z,2.50
2023-01-03T00:21:56.293Z,2.10
2023-01-03T00:24:28.075Z,2.20
2023-01-03T00:26:59.893Z,3.20
2023-01-03T00:29:32.015Z,2.90
2023-01-03T00:32:04.336Z,3.70
2023-01-03T00:34:37.127Z,2.50
2023-01-03T00:39:39.157Z,2.60
2023-01-03T00:42:10.958Z,4.20
2023-01-03T00:44:42.924Z,2.30
2023-01-03T00:47:14.598Z,2.10
2023-01-03T00:49:46.865Z,2.80
2023-01-03T00:52:18.630Z,3.00
2023-01-03T00:54:50.422Z,1.70
2023-01-03T00:57:22.766Z,2.60
2023-01-03T00:59:54.887Z,2.20
2023-01-03T01:02:27.189Z,2.60
2023-01-03T01:04:59.480Z,2.80
2023-01-03T01:07:31.712Z,2.50
2023-01-03T01:10:03.483Z,2.70
2023-01-03T01:12:35.299Z,4.20
2023-01-03T01:15:08.974Z,2.30
2023-01-03T01:17:41.526Z,2.80
2023-01-03T01:20:13.779Z,2.60
2023-01-03T01:22:45.832Z,2.00
2023-01-03T01:25:17.765Z,4.50
2023-01-03T01:27:49.391Z,2.20
2023-01-03T01:30:21.384Z,3.30
2023-01-03T01:32:53.413Z,2.30
2023-01-03T01:35:25.272Z,2.00
2023-01-03T01:37:57.509Z,2.00
2023-01-03T01:40:31.742Z,1.70
2023-01-03T01:43:34.515Z,2.70
2023-01-03T01:46:12.400Z,2.00
2023-01-03T01:48:44.430Z,2.80
2023-01-03T01:51:17.101Z,2.00
2023-01-03T01:56:22.768Z,2.30
2023-01-03T01:58:56.173Z,2.70
2023-01-03T02:01:28.211Z,3.30
2023-01-03T02:04:04.711Z,2.80
2023-01-03T02:06:36.983Z,2.90
2023-01-03T02:09:08.808Z,2.80
2023-01-03T02:12:11.849Z,3.90
2023-01-03T02:14:57.033Z,3.20
2023-01-03T02:17:41.809Z,4.30
2023-01-03T02:20:27.748Z,7.80
2023-01-03T02:23:22.652Z,6.00
2023-01-03T02:26:23.545Z,6.00
2023-01-03T02:29:30.821Z,7.10
2023-01-03T02:32:13.450Z,8.70
2023-01-03T02:34:51.587Z,8.70
2023-01-03T02:37:31.502Z,8.40
2023-01-03T02:40:10.392Z,8.00
2023-01-03T02:43:01.925Z,8.80
2023-01-03T02:45:53.347Z,6.60
2023-01-03T02:48:36.935Z,8.20
2023-01-03T02:51:14.123Z,9.10
2023-01-03T02:53:48.696Z,10.40
2023-01-03T02:56:26.821Z,7.60
2023-01-03T02:59:02.584Z,6.40
2023-01-03T03:01:36.943Z,7.50
2023-01-03T03:04:10.002Z,5.70
2023-01-03T03:06:51.443Z,6.30
2023-01-03T03:09:23.519Z,7.10
2023-01-03T03:12:14.853Z,6.20
2023-01-03T03:14:51.500Z,7.90
2023-01-03T03:17:29.610Z,5.40
2023-01-03T03:20:19.619Z,9.70
2023-01-03T03:23:13.210Z,6.90
2023-01-03T03:25:49.393Z,4.60
2023-01-03T03:28:37.936Z,4.80
2023-01-03T03:31:15.798Z,6.20
2023-01-03T03:33:51.083Z,7.80
2023-01-03T03:36:33.900Z,7.20
2023-01-03T03:39:31.210Z,6.50
2023-01-03T03:42:36.899Z,5.10
2023-01-03T03:45:16.923Z,10.60
2023-01-03T03:47:54.892Z,7.90
2023-01-03T03:50:32.779Z,8.80
2023-01-03T03:53:09.122Z,8.30
2023-01-03T03:55:44.597Z,5.30
2023-01-03T03:58:19.358Z,6.40
2023-01-03T04:00:54.142Z,7.00
2023-01-03T04:03:26.628Z,7.30
2023-01-03T04:06:01.609Z,8.20
2023-01-03T04:08:33.455Z,11.90
2023-01-03T04:11:08.965Z,11.00
2023-01-03T04:13:41.518Z,6.70
2023-01-03T04:16:13.936Z,8.10
2023-01-03T04:18:45.864Z,6.50
2023-01-03T04:21:21.038Z,6.80
2023-01-03T04:23:52.979Z,7.20
2023-01-03T04:26:24.871Z,6.80
2023-01-03T04:28:56.954Z,10.70
2023-01-03T04:31:28.800Z,5.00
2023-01-03T04:34:00.578Z,6.00
2023-01-03T04:36:32.417Z,5.60
2023-01-03T04:39:04.928Z,4.90
2023-01-03T04:41:36.925Z,4.50
2023-01-03T04:44:09.970Z,8.20
2023-01-03T04:46:45.181Z,7.00
2023-01-03T04:49:20.858Z,5.10
2023-01-03T04:51:52.625Z,4.90
2023-01-03T04:54:24.269Z,7.10
2023-01-03T04:56:56.360Z,5.30
2023-01-03T04:59:28.184Z,6.40
2023-01-03T05:02:00.043Z,7.70
2023-01-03T05:04:32.287Z,10.90
2023-01-03T05:07:04.041Z,7.50
2023-01-03T05:09:35.835Z,8.00
2023-01-03T05:12:12.185Z,7.90
2023-01-03T05:14:44.103Z,4.70
2023-01-03T05:17:16.047Z,7.80
2023-01-03T05:20:05.807Z,5.70
2023-01-03T05:22:55.088Z,7.50
2023-01-03T05:25:44.736Z,6.00
2023-01-03T05:28:17.695Z,4.70
2023-01-03T05:30:49.643Z,7.70
2023-01-03T05:33:21.312Z,7.70
2023-01-03T05:35:53.014Z,8.90
2023-01-03T05:38:24.878Z,9.10
2023-01-03T05:40:56.874Z,6.70
2023-01-03T05:43:29.529Z,6.70
2023-01-03T05:46:01.820Z,8.10
2023-01-03T05:48:33.578Z,9.80
2023-01-03T05:51:05.565Z,7.10
2023-01-03T05:53:37.252Z,4.00
2023-01-03T05:56:09.923Z,8.00
2023-01-03T05:58:43.434Z,6.20
2023-01-03T06:01:16.774Z,8.70
2023-01-03T06:03:49.649Z,5.30
2023-01-03T06:08:51.628Z,7.50
2023-01-03T06:11:23.810Z,8.30
2023-01-03T06:13:55.865Z,6.20
2023-01-03T06:16:46.072Z,4.90
2023-01-03T06:19:18.338Z,6.90
2023-01-03T06:21:50.160Z,6.00
2023-01-03T06:24:22.231Z,7.00
2023-01-03T06:26:54.107Z,7.40
2023-01-03T06:29:25.893Z,6.70
2023-01-03T06:31:59.387Z,8.80
2023-01-03T06:34:33.975Z,12.70
2023-01-03T06:37:05.988Z,7.10
2023-01-03T06:39:37.919Z,8.10
2023-01-03T06:42:29.911Z,5.80
2023-01-03T06:45:19.985Z,12.00
2023-01-03T06:48:09.262Z,8.40
2023-01-03T06:51:01.031Z,10.40
2023-01-03T06:53:37.237Z,8.10
2023-01-03T06:56:11.543Z,6.40
2023-01-03T06:58:43.318Z,8.20
2023-01-03T07:01:16.957Z,8.00
2023-01-03T07:03:48.979Z,8.40
2023-01-03T07:06:21.142Z,8.70
2023-01-03T07:08:53.295Z,13.80
2023-01-03T07:11:25.097Z,6.60
2023-01-03T07:13:59.429Z,11.10
2023-01-03T07:16:33.730Z,11.00
2023-01-03T07:19:07.178Z,10.90
2023-01-03T07:21:39.086Z,8.10
2023-01-03T07:24:14.237Z,10.10
2023-01-03T07:26:46.086Z,10.80
2023-01-03T07:29:18.604Z,7.20
2023-01-03T07:31:50.400Z,9.50
2023-01-03T07:34:22.148Z,7.30
2023-01-03T07:36:53.831Z,11.10
2023-01-03T07:39:25.497Z,12.40
2023-01-03T07:42:15.497Z,10.20
2023-01-03T07:44:47.367Z,7.40
2023-01-03T07:47:19.682Z,9.30
2023-01-03T07:49:57.087Z,7.50
2023-01-03T07:52:30.017Z,7.40
2023-01-03T07:55:01.732Z,10.40
2023-01-03T07:57:33.573Z,9.80
2023-01-03T08:00:12.130Z,14.20
2023-01-03T08:02:49.088Z,15.00
2023-01-03T08:05:21.219Z,7.20
2023-01-03T08:07:53.815Z,6.30
2023-01-03T08:10:43.309Z,12.60
2023-01-03T08:13:21.064Z,9.40
2023-01-03T08:15:55.374Z,8.20
2023-01-03T08:18:29.246Z,11.50
2023-01-03T08:21:01.414Z,13.90
2023-01-03T08:23:33.338Z,11.40
2023-01-03T08:26:07.607Z,12.40
2023-01-03T08:28:40.273Z,15.00
2023-01-03T08:31:17.397Z,12.40
2023-01-03T08:33:53.532Z,13.60
2023-01-03T08:36:28.309Z,11.30
2023-01-03T08:39:03.514Z,6.60
2023-01-03T08:41:39.795Z,5.80
2023-01-03T08:44:12.530Z,10.60
2023-01-03T08:49:20.836Z,4.90
2023-01-03T08:54:22.968Z,6.60
2023-01-03T08:56:54.737Z,11.70
2023-01-03T08:59:26.546Z,7.70
2023-01-03T09:02:02.733Z,5.40
2023-01-03T09:04:34.826Z,10.00
2023-01-03T09:07:06.919Z,11.70
2023-01-03T09:09:38.726Z,5.70
2023-01-03T09:12:10.549Z,12.00
2023-01-03T09:14:42.329Z,9.10
2023-01-03T09:17:14.220Z,11.80
2023-01-03T09:19:46.770Z,4.20
2023-01-03T09:22:19.016Z,6.80
2023-01-03T09:24:50.863Z,9.80
2023-01-03T09:27:22.887Z,8.70
2023-01-03T09:29:54.856Z,7.80
2023-01-03T09:32:26.708Z,8.10
2023-01-03T09:34:58.849Z,9.40
2023-01-03T09:37:33.291Z,4.50
2023-01-03T09:40:05.383Z,7.00
2023-01-03T09:42:58.010Z,7.40
2023-01-03T09:45:35.282Z,11.90
2023-01-03T09:48:08.232Z,9.80
2023-01-03T09:51:15.853Z,8.50
2023-01-03T09:53:56.849Z,4.20
2023-01-03T09:56:58.361Z,10.00
2023-01-03T09:59:52.035Z,7.40
2023-01-03T10:03:08.683Z,6.30
2023-01-03T10:05:52.599Z,14.80
2023-01-03T10:08:46.412Z,11.40
2023-01-03T10:11:25.022Z,9.40
2023-01-03T10:14:12.868Z,14.10
2023-01-03T10:16:55.022Z,15.90
2023-01-03T10:19:43.593Z,9.50
2023-01-03T10:22:20.413Z,10.00
2023-01-03T10:24:57.209Z,7.30
2023-01-03T10:27:32.148Z,8.50
2023-01-03T10:30:06.547Z,8.70
2023-01-03T10:33:03.281Z,7.80
2023-01-03T10:35:36.744Z,3.80
2023-01-03T10:38:08.551Z,10.00
2023-01-03T10:40:44.212Z,4.30
2023-01-03T10:43:21.322Z,11.10
2023-01-03T10:45:58.690Z,10.70
2023-01-03T10:49:00.025Z,7.00
2023-01-03T10:51:42.189Z,10.40
2023-01-03T10:54:27.997Z,3.30
2023-01-03T10:56:59.855Z,4.80
2023-01-03T10:59:33.204Z,9.60
2023-01-03T11:02:18.867Z,4.80
2023-01-03T11:05:06.524Z,10.80
2023-01-03T11:07:46.054Z,8.80
2023-01-03T11:10:20.446Z,5.90
2023-01-03T11:12:52.405Z,6.70
2023-01-03T11:15:39.152Z,10.60
2023-01-03T11:18:20.614Z,6.10
2023-01-03T11:21:02.883Z,10.40
2023-01-03T11:23:52.579Z,6.70
2023-01-03T11:26:37.111Z,8.10
2023-01-03T11:29:32.601Z,10.50
2023-01-03T11:32:21.726Z,8.70
2023-01-03T11:35:25.116Z,6.60
2023-01-03T11:38:11.311Z,7.00
2023-01-03T11:40:49.638Z,10.30
2023-01-03T11:43:35.085Z,8.70
2023-01-03T11:46:23.503Z,5.70
2023-01-03T11:49:08.295Z,6.50
2023-01-03T11:51:50.275Z,8.70
2023-01-03T11:54:49.340Z,3.90
2023-01-03T11:57:32.885Z,9.10
2023-01-03T12:00:13.352Z,11.50
2023-01-03T12:03:02.744Z,10.40
2023-01-03T12:05:53.615Z,5.60
2023-01-03T12:08:57.682Z,11.20
2023-01-03T12:11:47.843Z,9.80
2023-01-03T12:14:22.917Z,5.10
2023-01-03T12:17:01.264Z,7.80
2023-01-03T12:19:41.310Z,11.20
2023-01-03T12:22:20.939Z,10.50
2023-01-03T12:25:04.700Z,9.60
2023-01-03T12:27:43.331Z,8.90
2023-01-03T12:30:31.580Z,10.30
2023-01-03T12:33:13.265Z,17.20
2023-01-03T12:35:50.270Z,9.50
2023-01-03T12:38:29.915Z,6.30
2023-01-03T12:41:12.037Z,10.90
2023-01-03T12:43:50.007Z,14.40
2023-01-03T12:46:27.701Z,9.50
2023-01-03T12:49:06.497Z,6.80
2023-01-03T12:51:38.520Z,4.80
2023-01-03T12:54:23.697Z,5.30
2023-01-03T12:57:22.472Z,5.50
2023-01-03T13:00:21.976Z,4.00
2023-01-03T13:02:58.547Z,5.60
2023-01-03T13:05:37.998Z,10.30
2023-01-03T13:08:17.435Z,9.30
2023-01-03T13:10:53.337Z,7.00
2023-01-03T13:13:25.194Z,9.90
2023-01-03T13:15:57.431Z,4.70
2023-01-03T13:18:37.862Z,6.70
2023-01-03T13:21:52.342Z,4.80
2023-01-03T13:24:45.296Z,10.70
2023-01-03T13:27:38.724Z,11.20
2023-01-03T13:30:25.466Z,8.10
2023-01-03T13:33:16.918Z,8.40
2023-01-03T13:36:03.352Z,10.20
2023-01-03T13:38:36.311Z,11.90
2023-01-03T13:41:30.386Z,6.30
2023-01-03T13:44:10.836Z,8.10
2023-01-03T13:46:44.176Z,7.30
2023-01-03T13:49:23.008Z,6.30
2023-01-03T13:51:56.188Z,10.50
2023-01-03T13:54:59.126Z,6.80
2023-01-03T13:57:40.123Z,12.60
2023-01-03T14:00:22.148Z,11.70
2023-01-03T14:03:25.707Z,10.50
2023-01-03T14:06:27.321Z,11.40
2023-01-03T14:09:23.296Z,10.90
2023-01-03T14:12:37.842Z,10.20
2023-01-03T14:15:25.489Z,5.40
2023-01-03T14:18:01.710Z,9.80
2023-01-03T14:20:36.369Z,13.80
2023-01-03T14:23:48.928Z,8.00
2023-01-03T14:26:20.825Z,10.80
2023-01-03T14:28:55.953Z,7.60
2023-01-03T14:31:29.257Z,9.20
2023-01-03T14:34:03.481Z,12.20
2023-01-03T14:36:47.199Z,11.80
2023-01-03T14:42:05.871Z,7.10
2023-01-03T14:44:38.014Z,12.40
2023-01-03T14:47:17.533Z,5.70
2023-01-03T14:49:53.116Z,5.90
2023-01-03T14:52:31.431Z,12.50
2023-01-03T14:55:06.437Z,11.20
2023-01-03T14:57:41.419Z,16.10
2023-01-03T15:00:21.593Z,12.50
2023-01-03T15:02:57.045Z,11.10
2023-01-03T15:05:32.518Z,12.40
2023-01-03T15:08:22.119Z,20.40
2023-01-03T15:10:57.007Z,16.20
2023-01-03T15:13:34.732Z,15.80
2023-01-03T15:16:18.876Z,21.90
2023-01-03T15:18:53.095Z,19.30
2023-01-03T15:21:25.513Z,17.00
2023-01-03T15:23:57.982Z,21.10
2023-01-03T15:26:40.456Z,18.30
2023-01-03T15:29:16.080Z,16.70
2023-01-03T15:31:57.666Z,11.30
2023-01-03T15:34:42.768Z,15.80
2023-01-03T15:37:20.180Z,11.70
2023-01-03T15:39:54.372Z,14.20
2023-01-03T15:42:54.527Z,13.10
2023-01-03T15:45:36.764Z,11.00
2023-01-03T15:48:14.164Z,12.90
2023-01-03T15:50:50.699Z,13.60
2023-01-03T15:53:29.720Z,24.80
2023-01-03T15:56:05.487Z,19.80
2023-01-03T15:58:38.549Z,15.70
2023-01-03T16:01:11.580Z,17.90
2023-01-03T16:03:44.163Z,24.80
2023-01-03T16:08:49.612Z,22.20
2023-01-03T16:11:31.397Z,19.10
2023-01-03T16:14:08.153Z,22.90
2023-01-03T16:16:45.019Z,28.50
2023-01-03T16:19:21.988Z,15.60
2023-01-03T16:22:32.946Z,21.70
2023-01-03T16:24:48.077Z,22.00
2023-01-03T16:27:22.823Z,20.50
2023-01-03T16:29:55.115Z,20.20
2023-01-03T16:32:29.768Z,22.10
2023-01-03T16:35:04.620Z,24.70
2023-01-03T16:37:36.776Z,20.00
2023-01-03T16:40:16.724Z,21.00
2023-01-03T16:42:48.713Z,31.90
2023-01-03T16:45:21.452Z,29.20
2023-01-03T16:47:54.381Z,24.20
2023-01-03T16:50:26.362Z,23.50
2023-01-03T16:52:58.737Z,18.10
2023-01-03T16:58:02.259Z,22.30
2023-01-03T17:00:36.885Z,21.90
2023-01-03T17:03:08.750Z,18.80
2023-01-03T17:05:41.922Z,20.60
2023-01-03T17:10:50.866Z,20.80
2023-01-03T17:13:29.012Z,19.00
2023-01-03T17:16:02.279Z,20.00
2023-01-03T17:18:37.625Z,17.60
2023-01-03T17:21:17.522Z,19.20
2023-01-03T17:23:50.072Z,24.30
2023-01-03T17:26:23.660Z,22.20
2023-01-03T17:28:56.886Z,19.50
2023-01-03T17:31:29.380Z,25.30
2023-01-03T17:34:01.255Z,29.30
2023-01-03T17:36:34.711Z,25.90
2023-01-03T17:39:08.444Z,27.50
2023-01-03T17:41:54.268Z,28.60
2023-01-03T17:44:26.078Z,20.80
2023-01-03T17:47:19.529Z,28.00
2023-01-03T17:49:51.309Z,24.70
2023-01-03T17:52:26.467Z,25.60
2023-01-03T17:54:58.356Z,26.30
2023-01-03T17:57:30.357Z,28.00
2023-01-03T18:00:02.105Z,38.40
2023-01-03T18:02:43.596Z,28.80
2023-01-03T18:05:26.059Z,39.00
2023-01-03T18:08:01.450Z,33.10
2023-01-03T18:10:40.142Z,35.70
2023-01-03T18:13:25.878Z,29.90
2023-01-03T18:15:58.285Z,33.70
2023-01-03T18:21:01.845Z,37.20
2023-01-03T18:23:37.387Z,35.80
2023-01-03T18:26:12.153Z,40.80
2023-01-03T18:28:44.481Z,38.80
2023-01-03T18:31:21.144Z,41.60
2023-01-03T18:33:53.341Z,31.90
2023-01-03T18:36:30.238Z,41.80
2023-01-03T18:39:09.547Z,36.20
2023-01-03T18:41:42.750Z,33.70
2023-01-03T18:44:23.319Z,36.20
2023-01-03T18:46:56.464Z,32.50
2023-01-03T18:49:28.568Z,35.10
2023-01-03T18:52:00.959Z,34.10
2023-01-03T18:54:37.688Z,29.40
2023-01-03T18:57:13.355Z,27.30
2023-01-03T18:59:45.887Z,27.60
2023-01-03T19:02:19.481Z,28.70
2023-01-03T19:04:52.231Z,22.40
2023-01-03T19:07:30.348Z,24.80
2023-01-03T19:10:05.655Z,23.10
2023-01-03T19:12:40.801Z,19.10
2023-01-03T19:15:20.309Z,22.50
2023-01-03T19:17:52.646Z,23.30
2023-01-03T19:20:27.224Z,19.90
2023-01-03T19:22:59.337Z,24.50
2023-01-03T19:25:32.542Z,18.70
2023-01-03T19:28:06.362Z,16.50
2023-01-03T19:30:41.466Z,15.70
2023-01-03T19:33:15.338Z,16.90
2023-01-03T19:35:50.589Z,18.40
2023-01-03T19:38:22.838Z,22.20
2023-01-03T19:40:54.604Z,12.80
2023-01-03T19:43:26.871Z,18.20
2023-01-03T19:45:58.901Z,22.00
2023-01-03T19:48:31.331Z,23.20
2023-01-03T19:51:03.111Z,22.80
2023-01-03T19:53:35.063Z,29.60
2023-01-03T19:56:16.984Z,27.40
2023-01-03T19:58:49.571Z,26.10
2023-01-03T20:01:22.061Z,31.60
2023-01-03T20:03:54.350Z,32.50
2023-01-03T20:06:26.523Z,33.00
2023-01-03T20:08:58.367Z,26.60
2023-01-03T20:11:31.076Z,30.90
2023-01-03T20:14:04.117Z,42.70
2023-01-03T20:16:36.541Z,33.60
2023-01-03T20:19:12.224Z,38.90
2023-01-03T20:21:45.027Z,35.60
2023-01-03T20:24:25.614Z,39.90
2023-01-03T20:26:57.849Z,34.90
2023-01-03T20:29:29.614Z,33.60
2023-01-03T20:34:33.486Z,31.70
2023-01-03T20:39:38.631Z,36.90
2023-01-03T20:42:22.948Z,38.00
2023-01-03T20:44:56.756Z,39.70
2023-01-03T20:47:29.689Z,47.00
2023-01-03T20:52:33.339Z,63.10
2023-01-03T20:55:06.594Z,44.50
2023-01-03T20:57:38.445Z,45.10
2023-01-03T21:00:26.172Z,48.60
2023-01-03T21:02:58.616Z,50.40
2023-01-03T21:05:30.859Z,54.80
2023-01-03T21:08:20.764Z,47.30
2023-01-03T21:10:54.059Z,46.80
2023-01-03T21:13:26.094Z,49.70
2023-01-03T21:15:58.835Z,45.60
2023-01-03T21:21:06.647Z,44.10
2023-01-03T21:23:38.847Z,47.40
2023-01-03T21:26:10.599Z,45.90
2023-01-03T21:28:42.429Z,42.70
2023-01-03T21:31:20.219Z,41.00
2023-01-03T21:33:52.710Z,39.70
2023-01-03T21:36:28.639Z,47.30
2023-01-03T21:39:01.854Z,43.50
2023-01-03T21:41:55.795Z,46.10
2023-01-03T21:44:27.548Z,37.30
2023-01-03T21:46:59.575Z,25.80
2023-01-03T21:49:32.327Z,57.20
2023-01-03T21:52:04.122Z,50.30
2023-01-03T21:54:36.144Z,53.10
2023-01-03T21:57:08.112Z,44.60
2023-01-03T21:59:42.479Z,49.30
2023-01-03T22:02:32.857Z,52.00
2023-01-03T22:05:05.376Z,46.50
2023-01-03T22:07:37.192Z,39.20
2023-01-03T22:10:19.704Z,24.10
2023-01-03T22:15:25.041Z,43.60
2023-01-03T22:17:58.012Z,41.80
2023-01-03T22:23:08.967Z,45.40
2023-01-03T22:25:40.977Z,41.30
2023-01-03T22:28:12.713Z,58.30
2023-01-03T22:30:44.531Z,49.30
2023-01-03T22:33:16.350Z,43.90
2023-01-03T22:35:48.204Z,48.90
2023-01-03T22:38:20.259Z,53.10
2023-01-03T22:40:51.957Z,51.10
2023-01-03T22:43:23.741Z,47.40
2023-01-03T22:45:56.068Z,52.90
2023-01-03T22:48:28.216Z,44.50
2023-01-03T22:51:05.313Z,51.80
2023-01-03T22:53:37.828Z,48.00
2023-01-03T22:56:12.401Z,55.60
2023-01-03T22:58:45.030Z,56.00
2023-01-03T23:01:19.047Z,47.60
2023-01-03T23:03:51.079Z,50.10
2023-01-03T23:06:23.593Z,58.20
2023-01-03T23:08:55.683Z,54.40
2023-01-03T23:11:47.388Z,56.40
2023-01-03T23:14:21.561Z,53.00
2023-01-03T23:16:56.237Z,57.90
2023-01-03T23:19:29.550Z,50.30
2023-01-03T23:22:01.599Z,57.20
2023-01-03T23:24:33.568Z,38.40
2023-01-03T23:27:05.386Z,50.20
2023-01-03T23:29:37.061Z,53.00
2023-01-03T23:32:09.051Z,59.00
2023-01-03T23:34:40.971Z,57.90
2023-01-03T23:37:12.653Z,38.60
2023-01-03T23:39:44.698Z,54.70
2023-01-03T23:42:16.380Z,52.10
2023-01-03T23:44:48.203Z,59.90
2023-01-03T23:47:20.188Z,43.70
2023-01-03T23:49:52.050Z,51.80
2023-01-03T23:52:23.986Z,41.30
2023-01-03T23:55:01.445Z,54.40
2023-01-03T23:57:35.560Z,57.10
